Time;durP1;ratioP1;P1;durP2;ratioP2;P2;SDS_P1;SDS_P2;PMS_P1;PMS_P2;Temp;Humidity;BMP_temperature;BMP_pressure;BME280_temperature;BME280_humidity;BME280_pressure;Samples;Min_cycle;Max_cycle;Signal;HPM_P1;HPM_P2
2023/07/28 00:00:06;;;;;;;42.17;30.38;;;;;;;27.73;100.00;97531.34;4822968;29;20065;-62
2023/07/28 00:02:41;;;;;;;42.22;30.00;;;;;;;27.76;100.00;97538.84;4840506;29;20478;-62
2023/07/28 00:05:10;;;;;;;42.03;29.85;;;;;;;27.74;100.00;97535.66;4842154;29;20343;-62
2023/07/28 00:07:39;;;;;;;42.88;30.40;;;;;;;27.72;100.00;97532.47;4835446;29;20064;-62
2023/07/28 00:10:09;;;;;;;39.88;30.83;;;;;;;27.73;100.00;97533.28;4828040;29;20542;-62
2023/07/28 00:12:39;;;;;;;41.92;28.58;;;;;;;27.72;100.00;97528.94;4825286;29;20049;-62
2023/07/28 00:15:08;;;;;;;44.15;30.75;;;;;;;27.75;100.00;97531.03;4821734;29;20786;-62
2023/07/28 00:17:37;;;;;;;42.63;30.88;;;;;;;27.77;100.00;97534.19;4827073;29;20045;-62
2023/07/28 00:20:08;;;;;;;41.78;29.45;;;;;;;27.75;100.00;97529.06;4827438;29;20062;-62
2023/07/28 00:22:38;;;;;;;44.65;30.55;;;;;;;27.77;100.00;97517.88;4840257;29;20197;-62
2023/07/28 00:25:07;;;;;;;48.50;33.50;;;;;;;27.78;100.00;97517.53;4842282;29;20053;-62
2023/07/28 00:27:37;;;;;;;44.60;31.60;;;;;;;27.84;100.00;97529.81;4841219;29;20106;-62
2023/07/28 00:30:06;;;;;;;45.20;31.75;;;;;;;27.81;100.00;97530.47;4824092;29;20062;-62
2023/07/28 00:32:36;;;;;;;49.60;32.88;;;;;;;27.87;100.00;97525.63;4837634;29;20088;-62
2023/07/28 00:35:05;;;;;;;45.20;32.13;;;;;;;27.89;100.00;97521.44;4810293;29;20194;-62
2023/07/28 00:37:35;;;;;;;45.50;31.80;;;;;;;27.89;100.00;97526.09;4841030;29;20050;-62
2023/07/28 00:40:05;;;;;;;41.33;30.35;;;;;;;27.92;100.00;97533.59;4818028;29;20062;-61
2023/07/28 00:42:34;;;;;;;40.33;30.02;;;;;;;27.95;100.00;97544.59;4838251;29;20050;-62
2023/07/28 00:45:05;;;;;;;41.17;30.77;;;;;;;28.00;100.00;97544.41;4822917;29;20482;-63
2023/07/28 00:47:35;;;;;;;42.35;29.63;;;;;;;28.03;100.00;97553.81;4841741;29;20089;-62
2023/07/28 00:50:06;;;;;;;40.67;29.10;;;;;;;28.03;100.00;97553.81;4821879;29;20069;-62
2023/07/28 00:52:35;;;;;;;42.63;30.60;;;;;;;28.12;100.00;97566.25;4829001;29;20580;-62
2023/07/28 00:55:07;;;;;;;40.65;30.08;;;;;;;28.15;100.00;97570.22;4828592;29;20061;-63
2023/07/28 00:57:39;;;;;;;39.97;29.55;;;;;;;28.21;100.00;97570.84;4832443;29;20758;-62
2023/07/28 01:00:10;;;;;;;44.17;31.85;;;;;;;28.25;100.00;97569.81;4827224;29;20074;-61
2023/07/28 01:02:40;;;;;;;42.67;31.20;;;;;;;28.26;100.00;97570.63;4839658;29;20058;-62
2023/07/28 01:05:10;;;;;;;43.25;31.83;;;;;;;28.33;100.00;97571.66;4815141;29;20054;-62
2023/07/28 01:07:53;;;;;;;42.88;30.73;;;;;;;28.34;100.00;97570.53;4825345;29;20056;-61
2023/07/28 01:10:31;;;;;;;44.55;31.92;;;;;;;28.40;100.00;97571.94;4839595;29;20053;-62
2023/07/28 01:13:01;;;;;;;43.75;31.05;;;;;;;28.44;100.00;97570.13;4830196;29;20060;-63
2023/07/28 01:15:30;;;;;;;45.67;32.28;;;;;;;28.50;100.00;97571.50;4829834;29;20050;-62
2023/07/28 01:17:59;;;;;;;42.03;31.63;;;;;;;28.56;100.00;97582.97;4827121;29;20303;-62
2023/07/28 01:20:32;;;;;;;44.53;33.22;;;;;;;28.58;100.00;97581.53;4834058;29;20061;-62
2023/07/28 01:23:19;;;;;;;43.13;31.75;;;;;;;28.65;100.00;97588.34;4825385;29;20049;-63
2023/07/28 01:26:10;;;;;;;41.72;31.38;;;;;;;28.70;100.00;97578.06;4834448;29;20049;-63
2023/07/28 01:28:41;;;;;;;42.85;31.98;;;;;;;28.71;100.00;97581.56;4833598;29;20049;-62
2023/07/28 01:31:11;;;;;;;41.20;30.08;;;;;;;28.76;100.00;97590.34;4833710;29;20518;-62
2023/07/28 01:33:40;;;;;;;43.72;30.83;;;;;;;28.78;100.00;97600.88;4820239;29;20256;-61
2023/07/28 01:36:09;;;;;;;42.42;30.67;;;;;;;28.81;100.00;97594.78;4841154;29;20052;-62
2023/07/28 01:38:39;;;;;;;40.78;30.38;;;;;;;28.88;100.00;97597.72;4818716;29;20144;-61
2023/07/28 01:41:09;;;;;;;41.50;30.35;;;;;;;28.90;100.00;97584.56;4831961;29;20395;-62
2023/07/28 01:43:38;;;;;;;39.88;28.88;;;;;;;28.92;100.00;97594.00;4831935;29;20141;-61
2023/07/28 01:46:07;;;;;;;40.58;30.95;;;;;;;28.95;100.00;97597.97;4832356;29;20068;-62
2023/07/28 01:48:37;;;;;;;40.17;29.00;;;;;;;28.97;100.00;97587.53;4835530;29;20100;-62
2023/07/28 01:51:07;;;;;;;41.58;29.52;;;;;;;28.97;100.00;97591.03;4832263;29;20042;-62
2023/07/28 01:53:36;;;;;;;39.60;28.02;;;;;;;29.01;100.00;97582.97;4824623;29;20053;-62
2023/07/28 01:56:06;;;;;;;41.08;30.90;;;;;;;29.04;100.00;97582.28;4843456;29;20061;-62
2023/07/28 01:58:35;;;;;;;38.42;29.13;;;;;;;29.19;100.00;97589.00;4839822;29;20145;-62
2023/07/28 02:01:05;;;;;;;40.15;29.42;;;;;;;29.32;100.00;97593.34;4835641;29;20058;-62
2023/07/28 02:03:34;;;;;;;36.50;27.80;;;;;;;29.40;100.00;97589.72;4840193;29;20080;-62
2023/07/28 02:06:03;;;;;;;39.95;27.05;;;;;;;29.43;100.00;97600.72;4833520;29;20056;-62
2023/07/28 02:08:32;;;;;;;40.53;29.58;;;;;;;29.45;100.00;97597.66;4833106;29;20049;-62
2023/07/28 02:11:03;;;;;;;39.55;28.35;;;;;;;29.62;100.00;97607.53;4840271;29;20141;-62
2023/07/28 02:13:33;;;;;;;33.50;25.35;;;;;;;29.75;100.00;97600.94;4828720;29;20053;-62
2023/07/28 02:16:04;;;;;;;29.92;23.17;;;;;;;30.04;100.00;97613.53;4824355;29;20057;-62
2023/07/28 02:18:34;;;;;;;28.52;22.33;;;;;;;30.18;100.00;97608.47;4831102;29;20054;-63
2023/07/28 02:21:03;;;;;;;27.58;21.30;;;;;;;30.08;100.00;97598.03;4821772;29;20065;-62
2023/07/28 02:23:32;;;;;;;29.25;22.73;;;;;;;29.93;100.00;97609.69;4830772;29;20049;-61
2023/07/28 02:26:01;;;;;;;30.77;22.50;;;;;;;29.81;100.00;97605.03;4840735;29;20062;-65
2023/07/28 02:28:31;;;;;;;29.17;22.55;;;;;;;29.90;100.00;97619.38;4832194;29;20053;-62
2023/07/28 02:31:00;;;;;;;30.75;24.17;;;;;;;29.71;100.00;97625.38;4831372;29;20171;-61
2023/07/28 02:33:29;;;;;;;32.55;24.00;;;;;;;29.67;100.00;97629.94;4824413;29;20057;-63
2023/07/28 02:35:59;;;;;;;30.60;23.30;;;;;;;29.55;100.00;97624.50;4840897;29;20483;-63
2023/07/28 02:38:29;;;;;;;31.02;24.90;;;;;;;29.59;100.00;97625.41;4832625;29;20632;-63
2023/07/28 02:40:58;;;;;;;28.30;22.38;;;;;;;29.67;100.00;97626.41;4819866;29;20053;-63
2023/07/28 02:43:28;;;;;;;33.33;23.45;;;;;;;29.68;100.00;97628.81;4841686;29;20054;-62
2023/07/28 02:45:58;;;;;;;28.17;23.23;;;;;;;29.62;100.00;97623.91;4825288;29;20565;-63
2023/07/28 02:48:27;;;;;;;27.60;22.45;;;;;;;29.53;100.00;97629.50;4828203;29;20140;-62
2023/07/28 02:50:56;;;;;;;27.60;22.08;;;;;;;29.59;100.00;97625.41;4834105;29;20532;-63
2023/07/28 02:53:26;;;;;;;28.27;22.67;;;;;;;29.53;100.00;97631.44;4839145;29;20084;-62
2023/07/28 02:56:03;;;;;;;26.58;21.75;;;;;;;29.45;100.00;97635.88;4821208;29;20852;-63
2023/07/28 02:58:36;;;;;;;29.42;22.58;;;;;;;29.47;100.00;97630.88;4843043;29;20400;-63
2023/07/28 03:01:05;;;;;;;32.35;23.90;;;;;;;29.39;100.00;97634.50;4820861;29;20061;-60
2023/07/28 03:03:37;;;;;;;28.48;22.85;;;;;;;29.43;100.00;97632.72;4836747;29;20783;-63
2023/07/28 03:06:07;;;;;;;32.15;23.95;;;;;;;29.41;100.00;97641.22;4824123;29;20054;-62
2023/07/28 03:08:38;;;;;;;31.83;23.67;;;;;;;29.47;100.00;97639.06;4832775;29;20057;-62
2023/07/28 03:11:34;;;;;;;34.65;24.65;;;;;;;29.56;100.00;97649.88;4842251;29;20054;-63
2023/07/28 03:14:04;;;;;;;33.42;24.52;;;;;;;29.55;100.00;97653.72;4823379;29;20140;-63
2023/07/28 03:16:33;;;;;;;29.23;23.23;;;;;;;29.50;100.00;97660.22;4820128;29;20056;-63
2023/07/28 03:19:03;;;;;;;31.52;24.17;;;;;;;29.53;100.00;97650.53;4827534;29;20152;-63
2023/07/28 03:21:32;;;;;;;32.58;24.52;;;;;;;29.68;100.00;97658.03;4827512;29;20049;-63
2023/07/28 03:24:06;;;;;;;28.52;23.17;;;;;;;29.85;100.00;97655.06;4834191;29;20057;-61
2023/07/28 03:26:35;;;;;;;28.92;23.13;;;;;;;30.02;100.00;97654.84;4827205;29;20065;-61
2023/07/28 03:29:06;;;;;;;29.63;24.38;;;;;;;30.10;100.00;97653.09;4833726;29;20786;-61
2023/07/28 03:31:35;;;;;;;30.60;23.65;;;;;;;30.14;100.00;97652.06;4845511;29;20077;-61
2023/07/28 03:34:06;;;;;;;33.15;24.73;;;;;;;30.18;100.00;97650.22;4810743;29;20060;-60
2023/07/28 03:36:36;;;;;;;29.58;23.63;;;;;;;30.41;100.00;97649.69;4835337;29;20151;-61
2023/07/28 03:39:05;;;;;;;28.42;20.98;;;;;;;30.61;100.00;97657.75;4831117;29;20550;-61
2023/07/28 03:41:35;;;;;;;25.20;20.10;;;;;;;30.89;100.00;97651.47;4813924;29;20075;-61
2023/07/28 03:44:05;;;;;;;27.00;20.83;;;;;;;31.14;100.00;97661.13;4829287;29;20042;-60
2023/07/28 03:46:35;;;;;;;27.73;21.92;;;;;;;30.79;100.00;97660.97;4836327;29;20050;-61
2023/07/28 03:49:06;;;;;;;25.02;19.13;;;;;;;31.23;100.00;97656.28;4842775;29;20136;-61
2023/07/28 03:51:35;;;;;;;19.75;17.02;;;;;;;31.29;100.00;97657.59;4833194;29;20091;-62
2023/07/28 03:54:04;;;;;;;19.00;16.17;;;;;;;31.57;99.88;97646.56;4825660;29;20121;-60
2023/07/28 03:56:34;;;;;;;19.83;17.15;;;;;;;31.95;98.50;97652.19;4838766;29;20077;-62
2023/07/28 03:59:05;;;;;;;20.73;17.48;;;;;;;31.57;92.98;97650.09;4825169;29;20066;-61
2023/07/28 04:01:34;;;;;;;18.13;15.32;;;;;;;31.94;92.38;97653.31;4836205;29;20042;-61
2023/07/28 04:04:04;;;;;;;17.17;15.38;;;;;;;32.09;93.02;97651.69;4819232;29;20151;-61
2023/07/28 04:06:42;;;;;;;16.10;14.40;;;;;;;32.25;89.15;97654.38;4832674;29;20532;-62
2023/07/28 04:09:14;;;;;;;17.60;15.30;;;;;;;32.51;90.32;97657.28;4824187;29;20375;-61
2023/07/28 04:11:44;;;;;;;18.30;15.67;;;;;;;32.05;90.61;97650.78;4837872;29;20080;-61
2023/07/28 04:14:14;;;;;;;15.00;13.50;;;;;;;32.39;89.53;97655.50;4840930;29;20298;-62
2023/07/28 04:16:43;;;;;;;15.13;12.82;;;;;;;32.44;87.21;97659.88;4833653;29;20449;-61
2023/07/28 04:19:13;;;;;;;14.40;12.52;;;;;;;32.78;86.57;97664.50;4834132;29;20113;-61
2023/07/28 04:21:43;;;;;;;13.73;12.25;;;;;;;32.90;84.78;97663.53;4809097;29;20064;-62
2023/07/28 04:24:12;;;;;;;16.02;12.85;;;;;;;32.53;83.29;97661.22;4838783;29;20225;-61
2023/07/28 04:26:48;;;;;;;15.38;13.77;;;;;;;32.58;83.93;97654.66;4820269;29;20117;-62
2023/07/28 04:29:19;;;;;;;19.30;17.08;;;;;;;32.76;88.35;97658.59;4830004;29;20770;-61
2023/07/28 04:31:49;;;;;;;24.13;20.67;;;;;;;32.76;89.14;97663.28;4824745;29;20494;-61
2023/07/28 04:34:27;;;;;;;28.75;22.27;;;;;;;32.61;87.15;97655.91;4826797;29;20049;-62
2023/07/28 04:37:22;;;;;;;23.90;20.02;;;;;;;32.89;90.07;97646.28;4824166;29;20053;-62
2023/07/28 04:40:02;;;;;;;21.50;18.10;;;;;;;33.12;88.67;97645.50;4816717;29;20065;-62
2023/07/28 04:42:36;;;;;;;19.27;16.65;;;;;;;33.12;86.98;97642.75;4826018;29;20080;-61
2023/07/28 04:45:08;;;;;;;17.50;15.68;;;;;;;33.51;86.27;97651.66;4832261;29;20081;-62
2023/07/28 04:47:38;;;;;;;17.25;15.02;;;;;;;33.65;82.85;97647.19;4835028;29;20159;-63
2023/07/28 04:50:09;;;;;;;25.33;17.20;;;;;;;33.26;85.12;97637.53;4840569;29;20133;-63
2023/07/28 04:53:07;;;;;;;18.48;16.20;;;;;;;33.68;88.64;97646.47;4842709;29;20140;-61
2023/07/28 04:55:56;;;;;;;17.67;15.85;;;;;;;33.70;84.80;97655.16;4832743;29;20057;-62
2023/07/28 04:58:25;;;;;;;16.48;14.75;;;;;;;33.79;84.22;97650.19;4827710;29;20054;-64
2023/07/28 05:00:55;;;;;;;18.65;16.67;;;;;;;33.61;82.90;97660.09;4840220;29;20058;-63
2023/07/28 05:03:24;;;;;;;20.45;17.92;;;;;;;33.18;88.48;97657.81;4827619;29;20149;-64
2023/07/28 05:05:58;;;;;;;19.52;17.52;;;;;;;32.82;89.11;97657.13;4840224;29;20060;-61
2023/07/28 05:08:28;;;;;;;20.40;17.42;;;;;;;32.59;90.71;97656.25;4841691;29;20129;-63
2023/07/28 05:10:57;;;;;;;19.73;17.63;;;;;;;32.66;91.35;97653.72;4825758;29;20065;-62
2023/07/28 05:13:29;;;;;;;23.45;19.73;;;;;;;32.79;90.92;97660.63;4825396;29;20729;-63
2023/07/28 05:15:59;;;;;;;18.30;16.40;;;;;;;33.24;88.21;97650.84;4819926;29;20049;-62
2023/07/28 05:18:55;;;;;;;19.55;17.23;;;;;;;33.29;86.83;97650.53;4824624;29;20050;-62
2023/07/28 05:21:43;;;;;;;17.20;15.40;;;;;;;33.65;84.50;97647.19;4837150;29;20049;-62
2023/07/28 05:24:14;;;;;;;15.93;14.32;;;;;;;33.81;81.85;97655.31;4831174;29;20073;-63
2023/07/28 05:26:44;;;;;;;15.20;13.35;;;;;;;33.79;85.38;97650.19;4837241;29;20359;-63
2023/07/28 05:29:14;;;;;;;16.73;14.07;;;;;;;33.64;83.55;97647.56;4834550;29;20057;-63
2023/07/28 05:31:46;;;;;;;15.65;14.05;;;;;;;33.59;82.41;97656.13;4833343;29;20053;-64
2023/07/28 05:34:30;;;;;;;15.93;14.32;;;;;;;33.82;80.88;97646.69;4833177;29;20677;-63
2023/07/28 05:37:00;;;;;;;16.30;14.25;;;;;;;33.80;81.92;97649.03;4831946;29;20038;-63
2023/07/28 05:39:32;;;;;;;16.55;14.85;;;;;;;33.79;83.95;97650.19;4842340;29;20057;-63
2023/07/28 05:42:03;;;;;;;17.23;15.07;;;;;;;34.01;81.94;97648.53;4832945;29;20136;-63
2023/07/28 05:44:34;;;;;;;17.02;15.20;;;;;;;33.99;83.75;97645.34;4829609;29;20066;-64
2023/07/28 05:47:04;;;;;;;17.30;15.60;;;;;;;34.07;85.90;97651.75;4819805;29;20061;-64
2023/07/28 05:49:34;;;;;;;18.08;15.45;;;;;;;33.90;85.18;97649.56;4823762;29;20381;-64
2023/07/28 05:52:04;;;;;;;18.13;16.30;;;;;;;33.67;81.22;97652.38;4820493;29;20160;-64
2023/07/28 05:54:33;;;;;;;21.20;16.83;;;;;;;33.77;82.50;97658.00;4812864;29;20050;-64
2023/07/28 05:57:03;;;;;;;19.25;17.25;;;;;;;33.71;80.96;97645.75;4826530;29;20569;-64
2023/07/28 05:59:32;;;;;;;17.63;15.82;;;;;;;33.98;84.42;97646.53;4821006;29;20045;-64
2023/07/28 06:02:02;;;;;;;18.17;16.27;;;;;;;33.91;83.61;97643.69;4813975;29;20148;-65
2023/07/28 06:04:43;;;;;;;19.05;17.13;;;;;;;33.97;81.52;97641.41;4834819;29;20053;-64
2023/07/28 06:07:12;;;;;;;18.35;16.52;;;;;;;34.08;83.98;97645.09;4825033;29;20054;-63
2023/07/28 06:09:42;;;;;;;18.23;16.48;;;;;;;33.92;81.90;97645.28;4821321;29;20057;-63
2023/07/28 06:12:13;;;;;;;18.45;16.65;;;;;;;34.10;84.85;97642.75;4841311;29;20073;-63
2023/07/28 06:14:42;;;;;;;19.38;17.50;;;;;;;34.27;84.86;97639.47;4818896;29;20050;-63
2023/07/28 06:17:13;;;;;;;20.33;18.23;;;;;;;34.09;82.62;97639.22;4835627;29;20061;-62
2023/07/28 06:19:43;;;;;;;21.95;19.73;;;;;;;33.98;81.59;97641.03;4810377;29;20149;-63
2023/07/28 06:22:12;;;;;;;23.48;21.02;;;;;;;34.19;82.48;97644.09;4826409;29;20066;-63
2023/07/28 06:24:44;;;;;;;22.83;20.53;;;;;;;34.32;85.91;97644.66;4819672;29;20078;-63
2023/07/28 06:27:14;;;;;;;21.40;19.23;;;;;;;34.31;84.04;97642.28;4819973;29;20126;-63
2023/07/28 06:29:43;;;;;;;21.52;19.10;;;;;;;34.01;80.27;97645.00;4817374;29;20065;-62
2023/07/28 06:32:13;;;;;;;21.20;19.10;;;;;;;33.83;82.02;97631.00;4815576;29;20073;-63
2023/07/28 06:34:42;;;;;;;21.85;19.55;;;;;;;33.89;82.09;97636.97;4814392;29;20098;-64
2023/07/28 06:37:12;;;;;;;22.52;18.35;;;;;;;33.56;86.77;97632.94;4803220;29;20708;-64
2023/07/28 06:39:42;;;;;;;18.95;16.98;;;;;;;33.33;84.17;97632.97;4822983;29;20070;-64
2023/07/28 06:42:11;;;;;;;18.58;16.67;;;;;;;33.50;80.53;97633.63;4820868;29;20122;-65
2023/07/28 06:44:43;;;;;;;18.85;16.23;;;;;;;33.83;84.84;97637.28;4823603;29;20046;-65
2023/07/28 06:47:13;;;;;;;19.88;16.27;;;;;;;33.93;85.20;97624.09;4817986;29;20145;-64
2023/07/28 06:49:42;;;;;;;17.77;16.08;;;;;;;34.13;88.02;97626.31;4818474;29;20058;-64
2023/07/28 06:52:15;;;;;;;18.17;16.27;;;;;;;34.18;84.51;97616.97;4818191;29;20065;-65
2023/07/28 06:54:47;;;;;;;17.63;15.75;;;;;;;34.32;82.23;97616.38;4815439;29;20062;-63
2023/07/28 06:57:16;;;;;;;19.45;15.88;;;;;;;33.97;81.02;97611.97;4832993;29;20054;-63
2023/07/28 06:59:48;;;;;;;17.13;15.43;;;;;;;33.83;83.00;97604.31;4833247;29;20150;-64
2023/07/28 07:02:18;;;;;;;18.70;16.30;;;;;;;33.94;85.62;97601.75;4819106;29;20066;-65
2023/07/28 07:04:47;;;;;;;19.02;15.85;;;;;;;34.18;88.36;97600.47;4818943;29;20066;-64
2023/07/28 07:07:17;;;;;;;18.25;16.35;;;;;;;33.92;82.61;97603.25;4827739;29;20054;-65
2023/07/28 07:09:46;;;;;;;16.10;14.52;;;;;;;34.07;83.63;97592.09;4816540;29;20058;-63
2023/07/28 07:12:16;;;;;;;16.83;15.07;;;;;;;34.32;85.97;97580.63;4805191;29;20374;-63
2023/07/28 07:14:45;;;;;;;18.02;16.13;;;;;;;34.07;84.50;97588.56;4820896;29;20058;-65
2023/07/28 07:17:15;;;;;;;18.42;16.55;;;;;;;34.23;85.34;97580.91;4822132;29;20060;-65
2023/07/28 07:19:44;;;;;;;17.73;15.65;;;;;;;34.47;85.00;97563.13;4820219;29;20061;-65
2023/07/28 07:22:13;;;;;;;17.77;14.88;;;;;;;33.86;82.00;97567.06;4817661;29;20295;-66
2023/07/28 07:24:43;;;;;;;17.05;15.35;;;;;;;33.88;85.09;97562.00;4819668;29;20164;-63
2023/07/28 07:27:12;;;;;;;17.63;15.82;;;;;;;33.89;80.86;97560.84;4817929;29;20054;-63
2023/07/28 07:29:42;;;;;;;15.57;14.18;;;;;;;34.01;84.51;97559.81;4816360;29;20054;-63
2023/07/28 07:32:11;;;;;;;19.42;14.68;;;;;;;34.10;82.56;97555.59;4811473;29;20050;-65
2023/07/28 07:34:40;;;;;;;17.20;13.93;;;;;;;34.30;83.50;97553.50;4815343;29;20137;-64
2023/07/28 07:37:10;;;;;;;15.32;13.82;;;;;;;34.08;79.71;97562.66;4813232;29;20152;-66
2023/07/28 07:39:41;;;;;;;15.88;14.38;;;;;;;34.28;83.40;97547.59;4816066;29;20058;-64
2023/07/28 07:42:13;;;;;;;17.02;15.32;;;;;;;34.23;80.59;97551.47;4811958;29;20415;-62
2023/07/28 07:44:43;;;;;;;16.23;14.63;;;;;;;34.27;83.05;97535.00;4819693;29;20069;-61
2023/07/28 07:47:16;;;;;;;15.95;14.25;;;;;;;34.18;82.09;97529.81;4823759;29;20298;-61
2023/07/28 07:49:45;;;;;;;;;;;;;;;34.04;83.30;97521.38;4819789;29;20064;-61
2023/07/28 07:52:15;;;;;;;18.40;14.52;;;;;;;33.93;80.98;97519.66;4833343;29;19924;-62
2023/07/28 07:54:44;;;;;;;16.77;15.15;;;;;;;33.95;82.93;97520.06;4820982;29;20080;-62
2023/07/28 07:57:14;;;;;;;16.80;15.20;;;;;;;33.54;86.46;97513.66;4815929;29;20699;-62
2023/07/28 07:59:43;;;;;;;16.45;14.93;;;;;;;33.29;85.72;97507.78;4821884;29;20054;-63
2023/07/28 08:02:13;;;;;;;16.60;14.90;;;;;;;33.31;85.86;97505.47;4820254;29;20070;-62
2023/07/28 08:04:43;;;;;;;18.00;16.05;;;;;;;32.99;85.75;97502.22;4813758;29;20141;-62
2023/07/28 08:07:13;;;;;;;19.10;17.20;;;;;;;32.84;85.58;97492.97;4815773;29;20058;-63
2023/07/28 08:09:43;;;;;;;18.40;16.60;;;;;;;32.84;89.82;97487.47;4803697;29;20167;-63
2023/07/28 08:12:14;;;;;;;18.33;16.52;;;;;;;32.98;92.11;97489.66;4816831;29;20050;-63
2023/07/28 08:14:45;;;;;;;18.38;16.48;;;;;;;33.09;89.72;97476.91;4815310;29;20058;-63
2023/07/28 08:17:15;;;;;;;20.55;17.55;;;;;;;33.28;87.23;97474.06;4831225;29;20875;-63
2023/07/28 08:19:44;;;;;;;17.45;15.80;;;;;;;33.34;85.50;97469.03;4834627;29;20061;-64
2023/07/28 08:22:14;;;;;;;17.10;15.50;;;;;;;33.39;82.92;97469.50;4834735;29;20058;-64
2023/07/28 08:24:43;;;;;;;16.58;14.95;;;;;;;33.58;83.70;97468.59;4822328;29;20049;-64
2023/07/28 08:27:13;;;;;;;17.77;16.10;;;;;;;33.67;85.21;97455.41;4819917;29;20041;-66
2023/07/28 08:29:42;;;;;;;17.35;15.48;;;;;;;33.59;83.77;97464.66;4832839;29;20151;-65
2023/07/28 08:32:11;;;;;;;15.95;14.35;;;;;;;33.66;84.17;97455.75;4836953;29;20152;-65
2023/07/28 08:34:41;;;;;;;15.05;13.65;;;;;;;33.71;83.38;97445.25;4834743;29;20050;-64
2023/07/28 08:37:11;;;;;;;14.77;13.38;;;;;;;33.58;79.87;97438.38;4837247;29;20056;-65
2023/07/28 08:39:45;;;;;;;13.82;12.60;;;;;;;33.65;80.24;97429.41;4837883;29;20467;-65
2023/07/28 08:42:15;;;;;;;13.38;12.13;;;;;;;33.64;80.77;97436.88;4822110;29;20060;-65
2023/07/28 08:44:47;;;;;;;14.38;12.95;;;;;;;33.59;80.36;97431.69;4837649;29;20560;-64
2023/07/28 08:47:16;;;;;;;14.23;12.80;;;;;;;33.64;80.10;97416.84;4831621;29;20049;-64
2023/07/28 08:49:46;;;;;;;13.75;12.55;;;;;;;33.39;76.21;97433.03;4817922;29;20509;-64
2023/07/28 08:52:18;;;;;;;13.07;11.85;;;;;;;33.45;77.98;97417.81;4814894;29;20077;-64
2023/07/28 08:54:48;;;;;;;15.45;13.88;;;;;;;33.49;78.37;97420.59;4814281;29;20165;-65
2023/07/28 08:57:19;;;;;;;15.20;13.82;;;;;;;33.39;82.73;97419.31;4818805;29;20133;-64
2023/07/28 08:59:49;;;;;;;18.42;16.52;;;;;;;33.46;83.37;97427.63;4835345;29;20061;-63
2023/07/28 09:02:20;;;;;;;18.10;16.25;;;;;;;33.69;85.73;97422.03;4814768;29;20450;-62
2023/07/28 09:04:50;;;;;;;20.63;18.17;;;;;;;33.76;83.43;97414.69;4826775;29;20053;-64
2023/07/28 09:07:19;;;;;;;19.88;17.77;;;;;;;33.64;83.88;97409.41;4807759;29;20049;-64
2023/07/28 09:09:49;;;;;;;21.83;19.67;;;;;;;33.69;82.67;97411.06;4821429;29;20394;-62
2023/07/28 09:12:24;;;;;;;20.45;18.40;;;;;;;33.73;82.89;97398.16;4820189;29;20065;-64
2023/07/28 09:14:57;;;;;;;21.40;19.20;;;;;;;33.55;81.94;97392.44;4820225;29;20302;-64
2023/07/28 09:17:27;;;;;;;19.65;17.55;;;;;;;33.63;84.32;97396.06;4806821;29;20895;-62
2023/07/28 09:19:57;;;;;;;19.83;18.00;;;;;;;33.46;84.41;97388.41;4833695;29;20093;-64
2023/07/28 09:22:30;;;;;;;20.65;18.45;;;;;;;33.09;91.99;97375.38;4835690;29;20065;-63
2023/07/28 09:25:13;;;;;;;19.77;17.67;;;;;;;32.85;96.11;97376.59;4836842;29;20050;-63
2023/07/28 09:27:51;;;;;;;27.73;19.50;;;;;;;32.72;96.43;97379.94;4836457;29;20061;-64
2023/07/28 09:30:23;;;;;;;21.25;18.95;;;;;;;32.66;96.22;97374.00;4834412;29;20068;-64
2023/07/28 09:32:55;;;;;;;21.50;19.30;;;;;;;32.61;96.23;97376.22;4835158;29;20160;-63
2023/07/28 09:35:24;;;;;;;20.85;18.65;;;;;;;32.53;97.15;97370.59;4817128;29;20054;-65
2023/07/28 09:37:55;;;;;;;24.88;21.80;;;;;;;32.30;96.46;97371.81;4815728;29;20534;-63
2023/07/28 09:40:27;;;;;;;24.45;21.50;;;;;;;32.30;96.75;97366.34;4827778;29;20060;-63
2023/07/28 09:42:57;;;;;;;26.00;21.25;;;;;;;32.33;97.38;97371.06;4816225;29;20133;-64
2023/07/28 09:45:28;;;;;;;23.65;21.20;;;;;;;32.26;94.25;97365.50;4820318;29;20050;-64
2023/07/28 09:48:07;;;;;;;25.35;21.42;;;;;;;32.21;95.65;97352.09;4816786;29;20061;-63
2023/07/28 09:50:40;;;;;;;24.83;22.23;;;;;;;32.32;97.99;97348.34;4803893;29;20566;-64
2023/07/28 09:53:13;;;;;;;29.63;24.02;;;;;;;32.32;97.37;97348.34;4830991;29;20828;-62
2023/07/28 09:55:44;;;;;;;30.88;23.80;;;;;;;32.42;97.26;97347.75;4834253;29;20117;-64
2023/07/28 09:58:18;;;;;;;26.88;21.67;;;;;;;32.56;95.84;97341.69;4829240;29;20060;-64
2023/07/28 10:00:48;;;;;;;29.13;23.50;;;;;;;32.62;95.20;97348.44;4831800;29;20599;-65
2023/07/28 10:03:19;;;;;;;24.27;21.80;;;;;;;32.64;93.17;97346.13;4831965;29;20049;-63
2023/07/28 10:05:52;;;;;;;26.92;24.02;;;;;;;32.69;93.00;97345.03;4822091;29;20372;-64
2023/07/28 10:08:22;;;;;;;25.70;21.35;;;;;;;32.74;92.47;97341.97;4834480;29;20064;-63
2023/07/28 10:10:54;;;;;;;26.90;23.40;;;;;;;32.74;94.48;97340.03;4818117;29;20062;-63
2023/07/28 10:13:28;;;;;;;27.63;23.30;;;;;;;32.71;94.56;97343.47;4833049;29;20148;-63
2023/07/28 10:16:02;;;;;;;25.92;23.30;;;;;;;32.79;95.97;97327.94;4837017;29;20061;-63
2023/07/28 10:18:32;;;;;;;26.50;23.67;;;;;;;32.93;96.04;97334.38;4825215;29;20050;-65
2023/07/28 10:21:17;;;;;;;26.38;23.58;;;;;;;32.91;90.70;97333.97;4825508;29;20059;-64
2023/07/28 10:23:56;;;;;;;27.98;25.08;;;;;;;32.98;92.28;97325.84;4829246;29;20140;-64
2023/07/28 10:26:36;;;;;;;26.15;23.45;;;;;;;32.84;90.05;97324.88;4836686;29;20399;-64
2023/07/28 10:29:13;;;;;;;31.92;25.45;;;;;;;32.77;92.44;97327.50;4823551;29;20058;-66
2023/07/28 10:31:58;;;;;;;27.23;23.50;;;;;;;32.60;94.60;97319.78;4805848;29;20049;-65
2023/07/28 10:34:29;;;;;;;25.80;22.88;;;;;;;32.37;97.23;97320.63;4812911;29;20521;-67
2023/07/28 10:37:01;;;;;;;26.50;23.70;;;;;;;32.23;96.64;97319.63;4819274;29;20202;-65
2023/07/28 10:39:31;;;;;;;26.05;23.13;;;;;;;32.13;98.29;97315.56;4818832;29;20056;-64
2023/07/28 10:42:08;;;;;;;27.67;23.23;;;;;;;32.09;99.80;97296.31;4835644;29;20064;-68
2023/07/28 10:44:39;;;;;;;26.48;23.17;;;;;;;32.06;100.00;97299.75;4821332;29;20046;-67
2023/07/28 10:47:12;;;;;;;25.63;22.90;;;;;;;31.95;100.00;97307.03;4834559;29;20136;-66
2023/07/28 10:49:42;;;;;;;;;;;;;;;31.87;100.00;97294.34;4807069;29;20629;-68
2023/07/28 10:52:16;;;;;;;24.50;21.90;;;;;;;31.72;100.00;97289.00;4804424;29;19928;-67
2023/07/28 10:54:46;;;;;;;27.63;24.20;;;;;;;31.69;100.00;97296.00;4817644;29;20225;-67
2023/07/28 10:57:17;;;;;;;29.73;23.75;;;;;;;31.69;100.00;97287.00;4831848;29;20053;-69
2023/07/28 10:59:47;;;;;;;31.38;26.45;;;;;;;31.47;100.00;97272.88;4819490;29;20088;-66
2023/07/28 11:02:16;;;;;;;29.48;25.85;;;;;;;31.39;100.00;97268.44;4821202;29;20160;-67
2023/07/28 11:04:47;;;;;;;31.55;27.98;;;;;;;31.23;100.00;97281.44;4833081;29;20157;-68
2023/07/28 11:07:17;;;;;;;32.85;27.27;;;;;;;31.07;100.00;97278.00;4839288;29;20049;-66
2023/07/28 11:09:47;;;;;;;36.83;29.00;;;;;;;31.00;100.00;97272.34;4839141;29;20049;-66
2023/07/28 11:12:18;;;;;;;34.65;28.80;;;;;;;30.95;100.00;97265.22;4808757;29;20517;-67
2023/07/28 11:14:49;;;;;;;32.60;27.95;;;;;;;30.87;100.00;97274.44;4820369;29;20056;-68
2023/07/28 11:17:21;;;;;;;34.38;27.90;;;;;;;30.94;100.00;97266.38;4836023;29;20057;-67
2023/07/28 11:19:52;;;;;;;39.08;30.33;;;;;;;30.86;100.00;97255.66;4821395;29;20054;-66
2023/07/28 11:22:22;;;;;;;40.83;31.52;;;;;;;30.66;100.00;97238.47;4820983;29;20053;-68
2023/07/28 11:24:52;;;;;;;40.85;30.63;;;;;;;30.53;100.00;97228.81;4818266;29;20054;-69
2023/07/28 11:27:23;;;;;;;37.47;29.63;;;;;;;30.59;100.00;97232.84;4813813;29;20054;-67
2023/07/28 11:29:55;;;;;;;36.45;29.77;;;;;;;30.68;100.00;97231.47;4821447;29;20541;-67
2023/07/28 11:32:26;;;;;;;37.45;29.45;;;;;;;30.65;100.00;97243.13;4832913;29;20057;-67